メインページ
METAR-TAF:

METAR-TAF

空港 :

エドモントン, アルバータ州, カナダ

エドモントン国際空港

緯度: 53-18N, 経度: 113-35W, 海抜: 715m

現時点の気象観測

当レポートは17分前の23:00(UTC)に作成
北西の風 9kt
気温 22°C
湿度 31%
気圧 1016 hPa
視程: 24.1km
高度8000ftの雲はほとんどない
高度12000ftの千切れ雲あり
高度24000ftの千切れ雲あり

METAR: CYEG 272300Z 31009KT 15SM FEW080 BKN120 BKN240 22/04 A3000 RMK ACC2AC3CI2 SLP169 DENSITY ALT 3600FT

時間: 17:17 (23:17 UTC)

予報

当レポートは2時間39分前の20:38(UTC)に作成
予報は27日の 21時(UTC)から 28日の 18時(UTC)まで有効
北西の風 15kt、最大25ktの突風を伴う
視程: 10km
高度8000ftの雲は散在している
27日の 21時(UTC)から 28日の 02時(UTC)まで一時的に
視程: 10km
高度8000ftの千切れ雲あり
近辺でにわか雨
28日の 0200時(UTC)から
の風 10kt
視程: 10km
晴天
28日の 06時(UTC)から 28日の 08時(UTC)まで徐々に
西/北西の風 6kt
28日の 14時(UTC)から 28日の 16時(UTC)まで徐々に
の風 10kt

TAF: CYEG 272038Z 2721/2818 32015G25KT P6SM SCT080 TEMPO 2721/2802 P6SM VCSH BKN080 FM280200 36010KT P6SM SKC BECMG 2806/2808 30006KT BECMG 2814/2816 35010KT RMK NXT FCST BY 280000Z

4,000以上の空港の気象観測と天気予報(METAR報とTAF報)

利用可能な観測所は地図上に黄色い丸と赤い丸で示す。

丸の上にカーソルを重ねると観測所名を参照できる。

次にクリックすると気象観測と天気予報を参照できる。

マップの切り替え:黒色「×」印の緑ボタンをクリックして拡大、「-」印の緑ボタンをクリックして縮小、緑色の三角印をクリックして隣りの地図に切り替え


METAR-TAF: